Time;durP1;ratioP1;P1;durP2;ratioP2;P2;SDS_P1;SDS_P2;PMS_P1;PMS_P2;Temp;Humidity;BMP_temperature;BMP_pressure;BME280_temperature;BME280_humidity;BME280_pressure;Samples;Min_cycle;Max_cycle;Signal;HPM_P1;HPM_P2
2021/12/09 00:02:12;;;;;;;32.30;21.30;;;3.30;99.90;;;;;;4995201;28;20788;-52
2021/12/09 00:04:38;;;;;;;31.73;21.77;;;3.30;99.90;;;;;;4994984;28;20503;-49
2021/12/09 00:07:03;;;;;;;32.27;22.03;;;3.30;99.90;;;;;;4994948;28;20499;-54
2021/12/09 00:09:29;;;;;;;34.07;22.20;;;3.20;99.90;;;;;;4995272;28;20225;-52
2021/12/09 00:11:55;;;;;;;31.80;21.10;;;3.20;99.90;;;;;;4995163;28;20654;-55
2021/12/09 00:14:26;;;;;;;33.30;22.50;;;3.20;99.90;;;;;;4993635;28;20304;-50
2021/12/09 00:16:54;;;;;;;35.73;22.90;;;3.20;99.90;;;;;;4994667;28;20542;-52
2021/12/09 00:19:20;;;;;;;33.37;22.73;;;3.30;99.90;;;;;;4994885;28;20523;-51
2021/12/09 00:21:46;;;;;;;31.47;22.57;;;3.30;99.90;;;;;;4994814;28;20440;-50
2021/12/09 00:24:12;;;;;;;32.73;23.13;;;3.30;99.90;;;;;;4994955;28;20200;-52
2021/12/09 00:26:38;;;;;;;32.77;22.30;;;3.20;99.90;;;;;;4993292;28;20188;-51
2021/12/09 00:29:05;;;;;;;32.50;22.00;;;3.30;99.90;;;;;;4994539;28;20804;-50
2021/12/09 00:31:31;;;;;;;34.60;23.40;;;3.30;99.90;;;;;;4994858;28;20755;-51
2021/12/09 00:33:58;;;;;;;32.90;22.37;;;3.20;99.90;;;;;;4993149;28;20564;-54
2021/12/09 00:36:27;;;;;;;34.27;23.17;;;3.20;99.90;;;;;;4994438;28;20173;-53
2021/12/09 00:38:58;;;;;;;32.77;22.17;;;3.00;99.90;;;;;;4994268;28;20424;-49
2021/12/09 00:41:24;;;;;;;32.93;23.73;;;2.70;99.90;;;;;;4994528;28;20781;-51
2021/12/09 00:43:50;;;;;;;33.37;23.07;;;2.60;99.90;;;;;;4993915;28;20415;-49
2021/12/09 00:46:16;;;;;;;34.73;22.50;;;2.50;99.90;;;;;;4994140;28;20594;-52
2021/12/09 00:48:42;;;;;;;35.43;23.60;;;2.60;99.90;;;;;;4994037;28;20200;-49
2021/12/09 00:51:09;;;;;;;36.17;24.23;;;2.60;99.90;;;;;;4994418;28;20223;-51
2021/12/09 00:53:36;;;;;;;33.27;22.13;;;2.60;99.90;;;;;;4994152;28;20864;-52
2021/12/09 00:56:03;;;;;;;35.70;24.13;;;2.60;99.90;;;;;;4993988;28;20443;-54
2021/12/09 00:58:28;;;;;;;31.67;22.73;;;2.70;99.90;;;;;;4994264;28;20949;-55
2021/12/09 01:00:54;;;;;;;33.60;22.70;;;2.70;99.90;;;;;;4994012;28;20408;-50
2021/12/09 01:03:20;;;;;;;31.53;22.13;;;2.80;99.90;;;;;;4994302;28;20185;-49
2021/12/09 01:05:46;;;;;;;33.47;22.80;;;2.80;99.90;;;;;;4993848;28;20538;-50
2021/12/09 01:08:12;;;;;;;32.40;22.37;;;2.90;99.90;;;;;;4994130;28;20181;-52
2021/12/09 01:10:39;;;;;;;31.77;22.80;;;3.00;99.90;;;;;;4993897;28;20200;-54
2021/12/09 01:13:04;;;;;;;33.87;23.13;;;3.10;99.90;;;;;;4993886;28;20542;-49
2021/12/09 01:15:30;;;;;;;32.40;21.63;;;3.10;99.90;;;;;;4992158;28;20494;-48
2021/12/09 01:17:57;;;;;;;32.60;22.57;;;3.10;99.90;;;;;;4993913;28;20179;-50
2021/12/09 01:20:25;;;;;;;33.23;22.20;;;3.20;99.90;;;;;;4993708;28;20185;-52
2021/12/09 01:22:53;;;;;;;34.63;24.47;;;3.20;99.90;;;;;;4993739;28;20299;-50
2021/12/09 01:25:20;;;;;;;34.87;22.87;;;3.20;99.90;;;;;;4993321;28;20412;-50
2021/12/09 01:27:48;;;;;;;33.20;21.97;;;3.20;99.90;;;;;;4993718;28;20192;-48
2021/12/09 01:30:17;;;;;;;33.67;23.00;;;3.20;99.90;;;;;;4993446;28;20193;-50
2021/12/09 01:32:49;;;;;;;32.23;22.07;;;3.20;99.90;;;;;;4993785;28;20642;-50
2021/12/09 01:35:27;;;;;;;35.40;23.33;;;3.20;99.90;;;;;;4993382;28;20902;-53
2021/12/09 01:37:56;;;;;;;34.13;23.23;;;3.20;99.90;;;;;;4993412;28;20654;-50
2021/12/09 01:40:23;;;;;;;33.87;22.30;;;3.20;99.90;;;;;;4992007;28;20232;-53
2021/12/09 01:42:49;;;;;;;34.73;23.57;;;3.30;99.90;;;;;;4993285;28;20554;-49
2021/12/09 01:45:15;;;;;;;34.77;23.20;;;3.30;99.90;;;;;;4993387;28;20260;-48
2021/12/09 01:47:41;;;;;;;32.63;22.43;;;3.40;99.90;;;;;;4993179;28;20165;-49
2021/12/09 01:50:08;;;;;;;31.70;21.70;;;3.40;99.90;;;;;;4993102;28;20192;-51
2021/12/09 01:52:34;;;;;;;35.07;24.03;;;5.10;99.90;;;;;;5008175;28;20448;-52
2021/12/09 01:55:00;;;;;;;36.93;23.90;;;3.40;99.90;;;;;;4992209;28;20439;-52
2021/12/09 01:57:26;;;;;;;36.60;23.90;;;3.30;99.90;;;;;;4992882;28;20292;-48
2021/12/09 01:59:51;;;;;;;36.00;24.00;;;3.20;99.90;;;;;;4993064;28;20440;-53
2021/12/09 02:02:17;;;;;;;36.10;23.07;;;3.20;99.90;;;;;;4992969;28;20173;-52
2021/12/09 02:04:43;;;;;;;34.47;24.07;;;3.10;99.90;;;;;;4992410;28;20188;-49
2021/12/09 02:07:09;;;;;;;31.43;21.63;;;3.10;99.90;;;;;;4993036;28;20223;-49
2021/12/09 02:09:35;;;;;;;32.67;22.73;;;3.20;99.90;;;;;;4992718;28;20201;-50
2021/12/09 02:12:02;;;;;;;34.60;22.93;;;3.20;99.90;;;;;;4992877;28;20427;-52
2021/12/09 02:14:27;;;;;;;34.73;23.57;;;3.20;99.90;;;;;;4992665;28;20230;-53
2021/12/09 02:16:53;;;;;;;35.27;23.40;;;3.30;99.90;;;;;;4992614;28;20423;-48
2021/12/09 02:19:19;;;;;;;36.10;24.20;;;3.30;99.90;;;;;;4992379;28;20231;-50
2021/12/09 02:21:45;;;;;;;34.53;23.20;;;3.30;99.90;;;;;;4992796;28;20183;-50
2021/12/09 02:24:14;;;;;;;32.50;22.70;;;3.40;99.90;;;;;;4992586;28;20202;-52
2021/12/09 02:26:43;;;;;;;35.23;23.33;;;3.40;99.90;;;;;;4992437;28;20227;-53
2021/12/09 02:29:11;;;;;;;35.80;23.60;;;3.40;99.90;;;;;;4992491;28;20197;-50
2021/12/09 02:31:37;;;;;;;36.40;24.90;;;3.40;99.90;;;;;;4992706;28;20208;-49
2021/12/09 02:34:03;;;;;;;34.77;24.53;;;3.40;99.90;;;;;;4992467;28;20205;-48
2021/12/09 02:36:36;;;;;;;35.17;23.60;;;3.40;99.90;;;;;;4992175;28;20450;-48
2021/12/09 02:39:04;;;;;;;36.17;23.13;;;3.50;99.90;;;;;;4992311;28;20201;-50
2021/12/09 02:41:30;;;;;;;36.27;25.23;;;3.50;99.90;;;;;;4992435;28;20690;-51
2021/12/09 02:44:01;;;;;;;35.57;24.53;;;3.50;99.90;;;;;;4991273;28;20276;-48
2021/12/09 02:46:27;;;;;;;36.70;24.37;;;3.50;99.90;;;;;;4992160;28;20192;-48
2021/12/09 02:48:53;;;;;;;37.53;26.27;;;3.50;99.90;;;;;;4992333;28;20197;-48
2021/12/09 02:51:19;;;;;;;37.97;25.80;;;3.50;99.90;;;;;;4992354;28;20626;-48
2021/12/09 02:53:45;;;;;;;35.80;24.37;;;3.50;99.90;;;;;;4992373;28;20196;-49
2021/12/09 02:56:12;;;;;;;39.27;24.50;;;3.50;99.90;;;;;;4991965;28;20202;-48
2021/12/09 02:58:38;;;;;;;36.67;24.77;;;3.50;99.90;;;;;;4992331;28;20177;-49
2021/12/09 03:01:17;;;;;;;36.60;24.67;;;3.50;99.90;;;;;;4991130;28;20185;-51
2021/12/09 03:03:55;;;;;;;37.73;25.23;;;3.50;99.90;;;;;;4992212;28;20956;-51
2021/12/09 03:06:28;;;;;;;37.03;24.80;;;3.50;99.90;;;;;;4994480;28;20416;-49
2021/12/09 03:08:54;;;;;;;39.00;25.07;;;3.50;99.90;;;;;;4996151;28;20207;-49
2021/12/09 03:11:21;;;;;;;34.50;23.97;;;3.50;99.90;;;;;;4996240;28;20260;-52
2021/12/09 03:13:48;;;;;;;34.53;23.30;;;3.50;99.90;;;;;;4994890;28;20197;-52
2021/12/09 03:16:14;;;;;;;34.73;23.43;;;3.40;99.90;;;;;;4995934;28;20220;-48
2021/12/09 03:18:42;;;;;;;33.93;23.10;;;3.50;99.90;;;;;;4995716;28;20574;-52
2021/12/09 03:21:33;;;;;;;34.83;24.60;;;3.40;99.90;;;;;;4996079;28;20888;-51
2021/12/09 03:24:01;;;;;;;34.50;23.30;;;3.40;99.90;;;;;;4995881;28;20208;-48
2021/12/09 03:26:34;;;;;;;35.00;23.53;;;3.40;99.90;;;;;;4995682;28;20408;-51
2021/12/09 03:29:03;;;;;;;35.83;24.03;;;3.50;99.90;;;;;;4995764;28;20244;-48
2021/12/09 03:31:29;;;;;;;32.93;22.93;;;3.40;99.90;;;;;;4995961;28;20184;-48
2021/12/09 03:33:56;;;;;;;38.13;24.80;;;3.50;99.90;;;;;;4995531;28;20205;-49
2021/12/09 03:36:25;;;;;;;37.40;23.70;;;3.50;99.90;;;;;;4995474;28;20225;-49
2021/12/09 03:38:51;;;;;;;35.83;23.57;;;3.40;99.90;;;;;;4995386;28;20284;-48
2021/12/09 03:41:17;;;;;;;35.33;23.90;;;3.40;99.90;;;;;;4995730;28;20590;-49
2021/12/09 03:43:43;;;;;;;37.53;24.47;;;3.40;99.90;;;;;;4995568;28;20173;-49
2021/12/09 03:46:08;;;;;;;33.33;22.63;;;3.30;99.90;;;;;;4995148;28;20212;-53
2021/12/09 03:48:34;;;;;;;41.97;26.10;;;3.30;99.90;;;;;;4995418;28;20181;-52
2021/12/09 03:50:59;;;;;;;35.87;24.10;;;3.20;99.90;;;;;;4995331;28;20180;-48
2021/12/09 03:53:25;;;;;;;36.07;25.20;;;3.20;99.90;;;;;;4995466;28;20605;-49
2021/12/09 03:55:51;;;;;;;35.33;23.70;;;3.10;99.90;;;;;;5009449;28;20196;-50
2021/12/09 03:58:18;;;;;;;36.23;23.87;;;3.10;99.90;;;;;;5012921;28;20197;-54
2021/12/09 04:00:44;;;;;;;36.07;23.00;;;3.00;99.90;;;;;;5012705;28;20249;-50
2021/12/09 04:03:10;;;;;;;35.60;24.27;;;2.90;99.90;;;;;;5013616;28;20435;-52
2021/12/09 04:05:37;;;;;;;33.47;23.10;;;2.60;99.90;;;;;;5009542;28;20412;-51
2021/12/09 04:08:04;;;;;;;36.43;23.47;;;2.60;99.90;;;;;;5010983;28;20173;-50
2021/12/09 04:10:31;;;;;;;38.60;25.33;;;2.70;99.90;;;;;;5009708;28;20430;-55
2021/12/09 04:12:58;;;;;;;36.17;23.37;;;2.80;99.90;;;;;;5010442;28;20460;-51
2021/12/09 04:15:23;;;;;;;34.80;23.73;;;2.90;99.90;;;;;;5010938;28;20412;-51
2021/12/09 04:17:49;;;;;;;37.97;26.10;;;2.90;99.90;;;;;;5008598;28;20413;-53
2021/12/09 04:20:15;;;;;;;35.50;23.40;;;1.60;99.90;;;;;;5009911;28;20189;-49
2021/12/09 04:22:48;;;;;;;34.13;23.23;;;3.00;99.90;;;;;;5008340;28;20423;-48
2021/12/09 04:25:15;;;;;;;36.53;24.23;;;3.10;99.90;;;;;;5009183;28;20188;-52
2021/12/09 04:27:40;;;;;;;38.90;24.97;;;3.10;99.90;;;;;;5009219;28;20475;-53
2021/12/09 04:30:06;;;;;;;39.87;24.87;;;3.10;99.90;;;;;;5010216;28;20617;-51
2021/12/09 04:32:32;;;;;;;36.73;24.13;;;3.20;99.90;;;;;;5009717;28;20229;-52
2021/12/09 04:34:58;;;;;;;33.90;23.60;;;3.20;99.90;;;;;;5007641;28;20211;-54
2021/12/09 04:37:23;;;;;;;35.77;23.57;;;3.20;99.90;;;;;;5009975;28;20447;-51
2021/12/09 04:39:49;;;;;;;33.93;23.30;;;3.20;99.90;;;;;;5008922;28;20220;-51
2021/12/09 04:42:15;;;;;;;34.03;23.37;;;3.30;99.90;;;;;;5008371;28;20252;-50
2021/12/09 04:44:40;;;;;;;37.53;25.13;;;3.30;99.90;;;;;;5007209;28;20178;-52
2021/12/09 04:47:06;;;;;;;37.40;25.37;;;3.30;99.90;;;;;;5008060;28;20173;-53
2021/12/09 04:49:32;;;;;;;37.47;24.50;;;3.30;99.90;;;;;;5005995;28;20259;-52
2021/12/09 04:51:59;;;;;;;35.33;24.27;;;3.20;99.90;;;;;;5007386;28;20170;-53
2021/12/09 04:54:25;;;;;;;36.93;24.43;;;3.20;99.90;;;;;;5005512;28;20189;-51
2021/12/09 04:56:52;;;;;;;37.37;25.13;;;2.90;99.90;;;;;;5004869;28;20176;-51
2021/12/09 04:59:18;;;;;;;36.33;24.57;;;3.40;99.90;;;;;;5004454;28;20185;-50
2021/12/09 05:01:48;;;;;;;36.13;24.17;;;2.90;99.90;;;;;;5004709;28;20405;-48
2021/12/09 05:04:14;;;;;;;36.90;23.60;;;3.30;99.90;;;;;;5003518;28;20200;-50
2021/12/09 05:06:40;;;;;;;37.03;24.47;;;3.10;99.90;;;;;;5004281;28;20412;-51
2021/12/09 05:09:10;;;;;;;36.70;25.50;;;3.10;99.90;;;;;;5005526;28;20195;-50
2021/12/09 05:14:06;;;;;;;36.83;23.53;;;3.00;99.90;;;;;;5006561;28;20491;-54
2021/12/09 05:16:32;;;;;;;38.40;23.73;;;3.10;99.90;;;;;;5005097;28;20173;-51
2021/12/09 05:18:59;;;;;;;37.10;24.13;;;3.10;99.90;;;;;;5005801;28;20936;-53
2021/12/09 05:21:28;;;;;;;39.93;25.77;;;3.20;99.90;;;;;;5005605;28;20197;-52
2021/12/09 05:23:55;;;;;;;35.67;24.10;;;4.60;99.90;;;;;;5006345;28;20427;-52
2021/12/09 05:26:25;;;;;;;37.67;24.50;;;4.20;99.90;;;;;;5004390;28;20649;-50
2021/12/09 05:28:55;;;;;;;34.63;23.47;;;3.20;99.90;;;;;;5005542;28;20279;-54
2021/12/09 05:34:05;;;;;;;37.40;24.13;;;3.20;99.90;;;;;;5005199;28;20284;-54
2021/12/09 05:36:31;;;;;;;36.97;23.57;;;3.20;99.90;;;;;;5004324;28;20821;-53
2021/12/09 05:38:57;;;;;;;36.67;24.63;;;3.30;99.90;;;;;;5005129;28;20197;-54
2021/12/09 05:41:23;;;;;;;43.60;27.67;;;3.30;99.90;;;;;;5004561;28;20192;-52
2021/12/09 05:43:48;;;;;;;36.33;24.57;;;3.20;99.90;;;;;;5003518;28;20185;-53
2021/12/09 05:46:14;;;;;;;39.93;25.80;;;3.10;99.90;;;;;;5003196;28;20227;-54
2021/12/09 05:48:41;;;;;;;39.03;25.37;;;2.90;99.90;;;;;;5003759;28;20192;-48
2021/12/09 05:51:07;;;;;;;37.53;23.87;;;2.80;99.90;;;;;;5003355;28;20638;-53
2021/12/09 05:53:33;;;;;;;35.10;22.50;;;2.60;99.90;;;;;;5003445;28;20451;-49
2021/12/09 05:55:58;;;;;;;34.53;23.13;;;2.60;99.90;;;;;;5003263;28;20897;-51
2021/12/09 05:58:26;;;;;;;39.93;25.00;;;2.70;99.90;;;;;;5003245;28;20551;-52
2021/12/09 06:00:53;;;;;;;34.33;23.00;;;2.40;99.90;;;;;;5003597;28;20180;-50
2021/12/09 06:03:20;;;;;;;36.53;24.23;;;2.80;99.90;;;;;;5003141;28;20813;-54
2021/12/09 06:05:46;;;;;;;35.90;24.73;;;2.80;99.90;;;;;;5003274;28;20412;-53
2021/12/09 06:08:12;;;;;;;38.80;25.03;;;4.40;99.90;;;;;;5003334;28;20184;-53
2021/12/09 06:10:38;;;;;;;38.80;24.97;;;2.90;99.90;;;;;;5003680;28;20436;-52
2021/12/09 06:13:04;;;;;;;36.93;23.83;;;2.90;99.90;;;;;;5003627;28;20213;-50
2021/12/09 06:15:30;;;;;;;38.63;23.90;;;4.30;99.90;;;;;;5002862;28;20244;-50
2021/12/09 06:17:55;;;;;;;37.17;24.33;;;2.90;99.90;;;;;;5003896;28;20976;-53
2021/12/09 06:20:21;;;;;;;37.37;23.77;;;2.90;99.90;;;;;;5003301;28;20597;-53
2021/12/09 06:22:46;;;;;;;34.23;22.67;;;2.90;99.90;;;;;;5002856;28;20209;-53
2021/12/09 06:25:17;;;;;;;35.10;23.03;;;3.00;99.90;;;;;;5001932;28;20173;-51
2021/12/09 06:27:44;;;;;;;34.20;23.17;;;3.00;99.90;;;;;;5003297;28;20173;-53
2021/12/09 06:30:10;;;;;;;36.20;24.07;;;4.70;99.90;;;;;;5004284;28;20196;-48
2021/12/09 06:32:35;;;;;;;35.70;24.10;;;3.10;99.90;;;;;;5006840;28;20443;-51
2021/12/09 06:35:03;;;;;;;32.97;23.07;;;3.00;99.90;;;;;;5007246;28;20236;-50
2021/12/09 06:37:28;;;;;;;35.57;23.77;;;3.10;99.90;;;;;;5008874;28;20609;-50
2021/12/09 06:39:54;;;;;;;33.27;22.93;;;3.10;99.90;;;;;;5006473;28;20217;-55
2021/12/09 06:42:19;;;;;;;35.27;23.90;;;3.20;99.90;;;;;;5008989;28;20173;-52
2021/12/09 06:44:45;;;;;;;35.93;24.03;;;3.20;99.90;;;;;;5005780;28;20177;-48
2021/12/09 06:47:10;;;;;;;32.70;22.50;;;3.20;99.90;;;;;;4998704;28;20224;-47
2021/12/09 06:49:36;;;;;;;35.20;22.93;;;3.00;99.90;;;;;;4998171;28;20733;-50
2021/12/09 06:52:03;;;;;;;34.17;22.87;;;4.40;99.90;;;;;;4999193;28;20189;-51
2021/12/09 06:54:28;;;;;;;35.17;23.10;;;3.10;99.90;;;;;;4981005;28;20292;-49
2021/12/09 06:56:54;;;;;;;30.53;20.80;;;3.10;99.90;;;;;;4979016;28;20952;-49
2021/12/09 06:59:20;;;;;;;31.53;22.47;;;3.10;99.90;;;;;;4980181;28;20272;-52
2021/12/09 07:01:46;;;;;;;34.77;22.47;;;4.80;99.90;;;;;;4998981;28;20646;-49
2021/12/09 07:04:11;;;;;;;33.90;22.23;;;3.20;99.90;;;;;;4999544;28;20193;-51
2021/12/09 07:06:38;;;;;;;32.83;22.43;;;3.20;99.90;;;;;;4998648;28;20207;-47
2021/12/09 07:09:04;;;;;;;34.50;23.07;;;3.20;99.90;;;;;;4999512;28;20228;-54
2021/12/09 07:11:32;;;;;;;33.73;23.67;;;3.20;99.90;;;;;;4998110;28;20451;-48
2021/12/09 07:13:57;;;;;;;31.57;22.23;;;4.30;99.90;;;;;;4999090;28;20204;-44
2021/12/09 07:16:23;;;;;;;35.10;22.43;;;3.20;99.90;;;;;;4997229;28;20186;-47
2021/12/09 07:18:49;;;;;;;34.87;22.87;;;4.80;99.90;;;;;;4997490;28;20213;-47
2021/12/09 07:21:15;;;;;;;34.57;24.43;;;2.90;99.90;;;;;;4997996;28;20176;-50
2021/12/09 07:23:41;;;;;;;33.17;22.43;;;4.10;99.90;;;;;;4996172;28;20659;-47
2021/12/09 07:26:06;;;;;;;31.57;21.40;;;3.10;99.90;;;;;;4999794;28;20183;-50
2021/12/09 07:28:32;;;;;;;34.17;22.37;;;4.60;99.90;;;;;;4999526;28;20208;-49
2021/12/09 07:30:58;;;;;;;37.00;23.37;;;3.00;99.90;;;;;;5000145;28;20192;-46
2021/12/09 07:33:24;;;;;;;33.70;23.47;;;3.10;99.90;;;;;;4999919;28;20197;-48
2021/12/09 07:35:50;;;;;;;36.30;23.70;;;2.90;99.90;;;;;;4997935;28;20431;-51
2021/12/09 07:38:16;;;;;;;33.53;21.80;;;2.90;99.90;;;;;;4999491;28;20169;-50
2021/12/09 07:40:42;;;;;;;32.27;22.90;;;2.80;99.90;;;;;;4999914;28;20259;-46
2021/12/09 07:43:08;;;;;;;34.67;23.83;;;2.60;99.90;;;;;;4998660;28;20181;-47
2021/12/09 07:45:33;;;;;;;35.20;23.87;;;2.50;99.90;;;;;;4993635;28;20193;-49
2021/12/09 07:47:59;;;;;;;37.90;24.77;;;2.50;99.90;;;;;;4996082;28;20181;-49
2021/12/09 07:50:28;;;;;;;36.30;23.53;;;2.40;99.90;;;;;;4995424;28;20204;-50
2021/12/09 07:52:55;;;;;;;33.93;23.13;;;2.40;99.90;;;;;;4995689;28;20182;-50
2021/12/09 07:55:23;;;;;;;36.67;24.53;;;2.40;99.90;;;;;;4982761;28;20425;-48
2021/12/09 07:57:50;;;;;;;38.40;24.80;;;2.40;99.90;;;;;;4996527;28;20502;-48
2021/12/09 08:00:28;;;;;;;38.07;25.53;;;2.30;99.90;;;;;;4997711;28;20537;-45
2021/12/09 08:02:55;;;;;;;34.87;23.40;;;3.40;99.90;;;;;;4997953;28;20412;-46
2021/12/09 08:05:22;;;;;;;38.53;24.47;;;2.00;99.90;;;;;;4997775;28;20484;-47
2021/12/09 08:07:48;;;;;;;37.50;24.87;;;1.90;99.90;;;;;;5028456;28;20416;-46
2021/12/09 08:10:15;;;;;;;37.73;25.87;;;1.90;99.90;;;;;;4997976;28;20428;-47
2021/12/09 08:12:42;;;;;;;37.07;25.87;;;1.80;99.90;;;;;;4998015;28;20228;-47
2021/12/09 08:15:10;;;;;;;36.00;24.30;;;1.80;99.90;;;;;;4997055;28;20464;-52
2021/12/09 08:20:06;;;;;;;39.37;26.00;;;1.90;99.90;;;;;;4996716;28;20514;-52
2021/12/09 08:22:32;;;;;;;35.97;23.77;;;1.80;99.90;;;;;;4996845;28;20169;-50
2021/12/09 08:24:58;;;;;;;39.50;24.53;;;1.80;99.90;;;;;;4996455;28;20424;-49
2021/12/09 08:27:25;;;;;;;38.63;25.50;;;1.80;99.90;;;;;;4996477;28;20482;-48
2021/12/09 08:29:51;;;;;;;36.87;24.93;;;1.80;99.90;;;;;;4995866;28;20443;-49
2021/12/09 08:32:17;;;;;;;49.70;29.27;;;1.60;99.90;;;;;;4994649;28;20420;-51
2021/12/09 08:34:43;;;;;;;40.43;25.10;;;1.60;99.90;;;;;;4993901;28;20724;-48
2021/12/09 08:37:09;;;;;;;36.90;24.90;;;1.70;99.90;;;;;;4995111;28;20533;-51
2021/12/09 08:39:34;;;;;;;37.37;24.97;;;1.50;99.90;;;;;;4994468;28;20591;-50
2021/12/09 08:42:00;;;;;;;52.47;32.87;;;1.70;99.90;;;;;;4994691;28;20193;-52
2021/12/09 08:44:25;;;;;;;37.00;25.60;;;2.40;99.90;;;;;;4994714;28;20289;-49
2021/12/09 08:46:51;;;;;;;37.20;24.47;;;2.10;99.90;;;;;;4995941;28;20173;-49
2021/12/09 08:49:18;;;;;;;38.93;25.07;;;2.10;99.90;;;;;;4994732;28;20213;-49
2021/12/09 08:51:44;;;;;;;36.47;25.27;;;2.10;99.90;;;;;;4995915;28;20204;-50
2021/12/09 08:54:09;;;;;;;34.07;23.13;;;2.00;99.90;;;;;;4996168;28;20890;-52
2021/12/09 08:56:36;;;;;;;32.23;23.57;;;1.90;99.90;;;;;;4995364;28;20436;-50
2021/12/09 08:59:05;;;;;;;34.43;24.00;;;1.80;99.90;;;;;;4995759;28;20193;-51
2021/12/09 09:01:32;;;;;;;35.47;24.97;;;1.80;99.90;;;;;;4995575;28;20504;-51
2021/12/09 09:03:58;;;;;;;36.57;24.97;;;1.90;99.90;;;;;;4995586;28;20528;-47
2021/12/09 09:06:24;;;;;;;37.37;25.00;;;1.80;99.90;;;;;;4996493;28;20479;-48
2021/12/09 09:08:56;;;;;;;37.70;25.80;;;1.60;99.90;;;;;;4997653;28;20201;-49
2021/12/09 09:11:22;;;;;;;37.50;25.40;;;1.50;99.90;;;;;;4997304;28;20220;-47
2021/12/09 09:13:47;;;;;;;37.17;24.80;;;1.50;99.90;;;;;;4996992;28;20452;-49
2021/12/09 09:16:13;;;;;;;36.87;25.37;;;1.50;99.90;;;;;;4996684;28;20173;-46
2021/12/09 09:18:39;;;;;;;40.10;26.00;;;1.60;99.90;;;;;;4997138;28;20184;-46
2021/12/09 09:21:04;;;;;;;37.40;25.23;;;1.60;99.90;;;;;;4996926;28;20177;-48
2021/12/09 09:23:30;;;;;;;38.37;24.80;;;1.60;99.90;;;;;;4997288;28;20212;-52
2021/12/09 09:25:55;;;;;;;40.50;25.53;;;1.60;99.90;;;;;;4996676;28;20758;-46
2021/12/09 09:28:21;;;;;;;39.67;26.33;;;1.50;99.90;;;;;;4997497;28;20205;-46
2021/12/09 09:30:53;;;;;;;37.60;25.30;;;1.50;99.90;;;;;;4997105;28;20284;-48
2021/12/09 09:33:20;;;;;;;35.57;24.63;;;1.50;99.90;;;;;;4996787;28;20196;-48
2021/12/09 09:35:47;;;;;;;37.37;24.90;;;1.60;99.90;;;;;;4996147;28;20827;-46
2021/12/09 09:38:15;;;;;;;38.20;25.07;;;1.60;99.90;;;;;;4997458;28;20488;-49
2021/12/09 09:40:46;;;;;;;36.07;25.43;;;1.50;99.90;;;;;;4996761;28;20456;-46
2021/12/09 09:43:26;;;;;;;38.00;25.80;;;1.40;99.90;;;;;;4996406;28;20413;-46
2021/12/09 09:45:53;;;;;;;37.27;26.17;;;1.30;99.90;;;;;;4995509;28;20904;-51
2021/12/09 09:48:19;;;;;;;37.20;25.07;;;1.30;99.90;;;;;;4995159;28;20427;-46
2021/12/09 09:50:45;;;;;;;35.17;24.03;;;1.30;99.90;;;;;;4994002;28;20448;-50
2021/12/09 09:53:11;;;;;;;35.13;24.60;;;1.40;99.90;;;;;;4995636;28;20825;-50
2021/12/09 09:55:37;;;;;;;34.93;24.27;;;1.50;99.90;;;;;;4994410;28;20192;-51
2021/12/09 09:58:04;;;;;;;35.33;24.97;;;1.60;99.90;;;;;;4995022;28;20670;-47
2021/12/09 10:00:30;;;;;;;35.17;24.83;;;1.50;99.90;;;;;;4994894;28;20795;-46
2021/12/09 10:02:59;;;;;;;33.87;24.10;;;1.50;99.90;;;;;;4993642;28;21005;-46
2021/12/09 10:05:33;;;;;;;37.40;24.47;;;1.50;99.90;;;;;;4994504;28;20417;-46
2021/12/09 10:07:58;;;;;;;38.73;26.87;;;1.60;99.90;;;;;;4995053;28;20422;-46
2021/12/09 10:10:24;;;;;;;35.20;25.23;;;1.60;99.90;;;;;;4995062;28;20420;-49
2021/12/09 10:12:55;;;;;;;37.60;25.37;;;1.60;99.90;;;;;;4995270;28;20174;-48
2021/12/09 10:15:37;;;;;;;37.50;26.13;;;2.90;99.90;;;;;;4995534;28;20169;-45
2021/12/09 10:18:03;;;;;;;34.90;24.43;;;1.50;99.90;;;;;;4999308;28;20408;-50
2021/12/09 10:20:55;;;;;;;38.03;26.03;;;1.50;99.90;;;;;;4999467;28;20436;-50
2021/12/09 10:23:31;;;;;;;34.53;24.00;;;1.60;99.90;;;;;;4998127;28;20193;-46
2021/12/09 10:26:27;;;;;;;34.77;24.50;;;1.60;99.90;;;;;;4999778;28;20416;-48
2021/12/09 10:29:02;;;;;;;36.97;25.13;;;1.60;99.90;;;;;;5000533;28;20471;-48
2021/12/09 10:31:33;;;;;;;33.97;24.87;;;1.60;99.90;;;;;;5000849;28;20571;-49
2021/12/09 10:36:59;;;;;;;35.47;25.10;;;1.70;99.90;;;;;;4999189;28;20455;-50
2021/12/09 10:39:26;;;;;;;39.83;25.10;;;1.80;99.90;;;;;;4999436;28;20502;-48
2021/12/09 10:41:53;;;;;;;34.40;24.57;;;1.80;99.90;;;;;;5000249;28;20446;-50
2021/12/09 10:44:31;;;;;;;35.73;24.27;;;1.90;99.90;;;;;;5000436;28;20408;-50
2021/12/09 10:47:06;;;;;;;34.67;24.77;;;1.70;99.90;;;;;;5001265;28;20423;-52
2021/12/09 10:49:40;;;;;;;36.43;25.40;;;1.60;99.90;;;;;;5000080;28;20435;-54
2021/12/09 10:52:19;;;;;;;36.67;25.57;;;3.50;99.90;;;;;;5000795;28;20423;-50
2021/12/09 10:54:45;;;;;;;39.40;26.10;;;1.50;99.90;;;;;;4999688;28;20819;-49
2021/12/09 10:57:28;;;;;;;38.10;24.97;;;1.50;99.90;;;;;;5000551;28;20412;-51
2021/12/09 10:59:55;;;;;;;35.27;24.53;;;1.60;99.90;;;;;;5000346;28;20199;-50
2021/12/09 11:02:20;;;;;;;36.27;26.07;;;1.40;99.90;;;;;;5001914;28;20945;-50
2021/12/09 11:05:07;;;;;;;36.00;24.87;;;1.80;99.90;;;;;;5001842;28;20452;-49
2021/12/09 11:07:33;;;;;;;38.10;26.70;;;1.80;99.90;;;;;;5000992;28;20247;-51
2021/12/09 11:10:18;;;;;;;34.00;24.47;;;1.80;99.90;;;;;;4998953;28;20463;-50
2021/12/09 11:12:55;;;;;;;34.07;24.53;;;1.80;99.90;;;;;;4998831;28;20478;-51
2021/12/09 11:15:23;;;;;;;34.83;25.07;;;2.20;99.90;;;;;;4998401;28;20454;-45
2021/12/09 11:17:52;;;;;;;34.83;24.97;;;1.80;99.90;;;;;;4998698;28;20444;-52
2021/12/09 11:20:43;;;;;;;36.07;25.47;;;1.80;99.90;;;;;;4997533;28;20425;-52
2021/12/09 11:23:26;;;;;;;37.17;25.00;;;1.80;99.90;;;;;;4997864;28;20408;-51
2021/12/09 11:25:53;;;;;;;37.50;26.17;;;1.90;99.90;;;;;;4998036;28;20920;-49
2021/12/09 11:28:18;;;;;;;34.90;24.67;;;2.00;99.90;;;;;;5002223;28;20415;-52
2021/12/09 11:31:06;;;;;;;34.40;24.13;;;1.90;99.90;;;;;;5000260;28;20969;-47
2021/12/09 11:33:40;;;;;;;34.83;24.67;;;1.90;99.90;;;;;;5002367;28;20193;-48
2021/12/09 11:36:07;;;;;;;40.63;26.17;;;2.00;99.90;;;;;;5002719;28;20420;-53
2021/12/09 11:38:54;;;;;;;38.67;25.67;;;1.90;99.90;;;;;;5003002;28;20404;-52
2021/12/09 11:41:32;;;;;;;37.43;25.27;;;1.90;99.90;;;;;;5004082;28;20412;-51
2021/12/09 11:43:57;;;;;;;36.40;25.13;;;1.90;99.90;;;;;;5002253;28;20777;-48
2021/12/09 11:46:23;;;;;;;39.93;27.10;;;1.90;99.90;;;;;;5002480;28;20415;-47
2021/12/09 11:48:49;;;;;;;36.00;24.33;;;1.90;99.90;;;;;;5003815;28;20586;-51
2021/12/09 11:51:14;;;;;;;35.77;25.07;;;1.90;99.90;;;;;;5003443;28;20181;-52
2021/12/09 11:53:43;;;;;;;32.40;24.47;;;1.90;99.90;;;;;;5004743;28;20202;-49
2021/12/09 11:56:26;;;;;;;37.57;25.67;;;2.00;99.90;;;;;;5005735;28;20237;-47
2021/12/09 12:07:57;;;;;;;37.30;25.50;;;2.10;99.90;;;;;;5006935;28;20458;-49
2021/12/09 12:14:18;;;;;;;37.30;25.77;;;2.00;99.90;;;;;;5007132;28;20568;-49
2021/12/09 12:17:01;;;;;;;39.30;27.47;;;1.90;99.90;;;;;;5002857;28;20423;-48
2021/12/09 12:28:32;;;;;;;38.33;27.27;;;3.80;99.90;;;;;;4965188;29;20417;-49
2021/12/09 12:33:54;;;;;;;37.90;26.57;;;2.00;99.90;;;;;;4965416;29;20528;-45
2021/12/09 12:39:59;;;;;;;36.27;26.17;;;2.10;99.90;;;;;;4964434;28;20453;-47
2021/12/09 12:45:11;;;;;;;35.13;25.27;;;2.10;99.90;;;;;;4965004;29;20788;-47
2021/12/09 12:47:43;;;;;;;35.00;25.43;;;2.20;99.90;;;;;;4966223;28;20480;-47
2021/12/09 12:50:11;;;;;;;37.17;26.47;;;2.20;99.90;;;;;;4965763;29;20454;-47
2021/12/09 12:52:38;;;;;;;36.17;25.80;;;2.10;99.90;;;;;;4965772;28;20187;-51
2021/12/09 12:55:18;;;;;;;35.90;25.70;;;4.50;99.90;;;;;;4965258;28;20462;-49
2021/12/09 12:57:50;;;;;;;35.97;24.90;;;2.20;99.90;;;;;;4965934;29;20182;-49
2021/12/09 13:00:18;;;;;;;35.10;25.33;;;2.00;99.90;;;;;;5002578;28;20221;-52
2021/12/09 13:05:54;;;;;;;37.83;25.57;;;0.50;99.90;;;;;;5006575;28;20475;-51
2021/12/09 13:09:00;;;;;;;35.50;25.87;;;2.00;99.90;;;;;;5006250;28;20427;-47
2021/12/09 13:11:52;;;;;;;37.63;26.07;;;2.00;99.90;;;;;;5006605;28;20439;-48
2021/12/09 13:14:23;;;;;;;35.73;24.27;;;2.10;99.90;;;;;;5006033;28;20460;-51
2021/12/09 13:17:00;;;;;;;36.63;25.30;;;2.10;99.90;;;;;;5006028;28;20181;-51
2021/12/09 13:19:37;;;;;;;33.53;24.10;;;2.20;99.90;;;;;;5006727;28;20185;-52
2021/12/09 13:22:08;;;;;;;33.43;23.97;;;2.80;99.90;;;;;;5007263;28;20165;-53
2021/12/09 13:24:55;;;;;;;35.23;25.40;;;2.10;99.90;;;;;;5006916;28;20440;-48
2021/12/09 13:30:32;;;;;;;35.60;25.07;;;2.10;99.90;;;;;;5006058;28;20436;-51